createdAt,value
2018-06-29T00:00:08.380Z,5.10
2018-06-29T00:02:37.172Z,4.10
2018-06-29T00:05:06.663Z,3.63
2018-06-29T00:07:35.529Z,4.30
2018-06-29T00:10:05.966Z,3.73
2018-06-29T00:12:35.137Z,3.67
2018-06-29T00:15:04.603Z,3.80
2018-06-29T00:17:33.936Z,4.40
2018-06-29T00:20:04.228Z,3.73
2018-06-29T00:22:33.024Z,3.67
2018-06-29T00:25:02.802Z,4.93
2018-06-29T00:27:31.757Z,4.50
2018-06-29T00:30:00.528Z,4.90
2018-06-29T00:32:29.276Z,7.13
2018-06-29T00:34:58.041Z,5.20
2018-06-29T00:37:27.001Z,3.67
2018-06-29T00:39:55.730Z,5.17
2018-06-29T00:42:24.429Z,3.90
2018-06-29T00:44:53.732Z,5.20
2018-06-29T00:47:22.497Z,5.57
2018-06-29T00:49:51.163Z,4.90
2018-06-29T00:52:19.825Z,4.47
2018-06-29T00:54:48.531Z,4.30
2018-06-29T00:57:17.152Z,4.30
2018-06-29T00:59:45.815Z,4.27
2018-06-29T01:02:14.487Z,4.13
2018-06-29T01:04:43.154Z,5.20
2018-06-29T01:07:11.792Z,4.80
2018-06-29T01:09:40.487Z,4.40
2018-06-29T01:12:09.131Z,4.70
2018-06-29T01:14:37.782Z,4.03
2018-06-29T01:17:06.427Z,5.20
2018-06-29T01:19:35.335Z,4.77
2018-06-29T01:22:04.027Z,4.93
2018-06-29T01:24:32.744Z,5.47
2018-06-29T01:27:01.447Z,4.77
2018-06-29T01:29:30.238Z,4.80
2018-06-29T01:31:58.909Z,4.50
2018-06-29T01:34:27.560Z,3.83
2018-06-29T01:36:56.232Z,5.07
2018-06-29T01:39:24.930Z,5.60
2018-06-29T01:41:53.659Z,4.27
2018-06-29T01:44:22.259Z,6.40
2018-06-29T01:46:51.008Z,4.80
2018-06-29T01:49:19.697Z,4.93
2018-06-29T01:51:48.370Z,6.90
2018-06-29T01:54:17.033Z,4.97
2018-06-29T01:56:46.232Z,5.00
2018-06-29T01:59:14.871Z,5.20
2018-06-29T02:01:43.555Z,4.97
2018-06-29T02:04:12.257Z,5.53
2018-06-29T02:06:40.896Z,5.70
2018-06-29T02:09:10.223Z,6.43
2018-06-29T02:11:38.875Z,6.53
2018-06-29T02:14:07.567Z,7.13
2018-06-29T02:16:36.202Z,5.60
2018-06-29T02:19:05.139Z,7.40
2018-06-29T02:21:33.715Z,5.97
2018-06-29T02:24:02.524Z,5.47
2018-06-29T02:26:31.218Z,5.60
2018-06-29T02:28:59.902Z,6.00
2018-06-29T02:31:28.575Z,5.87
2018-06-29T02:33:57.313Z,4.90
2018-06-29T02:36:25.924Z,6.67
2018-06-29T02:38:54.599Z,6.50
2018-06-29T02:41:23.228Z,6.07
2018-06-29T02:43:51.885Z,5.27
2018-06-29T02:46:20.568Z,6.17
2018-06-29T02:48:49.280Z,7.30
2018-06-29T02:51:17.970Z,5.97
2018-06-29T02:53:46.657Z,6.20
2018-06-29T02:56:15.326Z,6.30
2018-06-29T02:58:43.997Z,5.77
2018-06-29T03:01:12.683Z,6.87
2018-06-29T03:03:41.364Z,5.67
2018-06-29T03:06:10.044Z,6.23
2018-06-29T03:08:38.725Z,13.00
2018-06-29T03:11:07.517Z,5.30
2018-06-29T03:13:36.357Z,9.20
2018-06-29T03:16:05.075Z,6.23
2018-06-29T03:18:34.240Z,6.57
2018-06-29T03:21:02.929Z,9.67
2018-06-29T03:23:31.627Z,6.13
2018-06-29T03:26:00.291Z,6.20
2018-06-29T03:28:29.006Z,6.70
2018-06-29T03:30:57.719Z,5.77
2018-06-29T03:33:26.343Z,5.83
2018-06-29T03:35:55.131Z,7.67
2018-06-29T03:38:23.833Z,5.80
2018-06-29T03:40:52.539Z,6.97
2018-06-29T03:43:21.226Z,6.20
2018-06-29T03:45:49.987Z,11.23
2018-06-29T03:48:18.731Z,8.60
2018-06-29T03:50:47.385Z,6.60
2018-06-29T03:53:16.035Z,6.80
2018-06-29T03:55:44.751Z,7.03
2018-06-29T03:58:13.470Z,7.23
2018-06-29T04:00:42.123Z,7.50
2018-06-29T04:03:10.900Z,8.90
2018-06-29T04:05:39.832Z,10.93
2018-06-29T04:08:08.563Z,6.53
2018-06-29T04:10:37.279Z,6.63
2018-06-29T04:13:06.316Z,7.47
2018-06-29T04:15:34.943Z,5.50
2018-06-29T04:18:03.717Z,7.10
2018-06-29T04:20:32.406Z,5.43
2018-06-29T04:23:01.084Z,5.37
2018-06-29T04:25:29.749Z,6.93
2018-06-29T04:27:59.080Z,5.50
2018-06-29T04:30:27.779Z,13.87
2018-06-29T04:32:56.485Z,6.00
2018-06-29T04:35:25.357Z,7.67
2018-06-29T04:37:55.823Z,5.40
2018-06-29T04:40:24.817Z,5.60
2018-06-29T04:42:54.190Z,7.90
2018-06-29T04:45:24.555Z,5.73
2018-06-29T04:47:54.461Z,8.23
2018-06-29T04:50:23.144Z,6.00
2018-06-29T04:52:51.829Z,6.23
2018-06-29T04:55:20.491Z,7.50
2018-06-29T04:57:49.174Z,5.00
2018-06-29T05:00:18.562Z,7.03
2018-06-29T05:02:47.251Z,6.87
2018-06-29T05:05:16.039Z,6.97
2018-06-29T05:07:45.093Z,4.83
2018-06-29T05:10:13.828Z,4.67
2018-06-29T05:12:42.495Z,4.83
2018-06-29T05:15:11.467Z,5.67
2018-06-29T05:17:40.185Z,4.77
2018-06-29T05:20:08.859Z,5.57
2018-06-29T05:22:37.576Z,5.37
2018-06-29T05:25:06.264Z,6.27
2018-06-29T05:27:35.935Z,4.70
2018-06-29T05:30:06.323Z,5.77
2018-06-29T05:32:35.471Z,10.50
2018-06-29T05:35:04.189Z,5.00
2018-06-29T05:37:32.899Z,4.83
2018-06-29T05:40:02.582Z,7.70
2018-06-29T05:42:31.344Z,4.90
2018-06-29T05:45:02.291Z,3.77
2018-06-29T05:47:31.690Z,4.63
2018-06-29T05:50:01.201Z,3.70
2018-06-29T05:52:31.411Z,5.93
2018-06-29T05:55:04.152Z,8.10
2018-06-29T05:57:38.154Z,9.63
2018-06-29T06:00:11.206Z,5.90
2018-06-29T06:02:39.873Z,3.43
2018-06-29T06:05:08.524Z,6.27
2018-06-29T06:07:37.268Z,7.53
2018-06-29T06:10:06.492Z,4.67
2018-06-29T06:12:35.152Z,4.57
2018-06-29T06:15:04.586Z,6.67
2018-06-29T06:17:33.341Z,5.13
2018-06-29T06:20:07.025Z,5.40
2018-06-29T06:22:36.732Z,7.27
2018-06-29T06:25:05.859Z,4.57
2018-06-29T06:27:34.589Z,4.70
2018-06-29T06:30:03.289Z,6.27
2018-06-29T06:32:32.969Z,6.30
2018-06-29T06:35:01.654Z,6.40
2018-06-29T06:37:30.315Z,4.33
2018-06-29T06:39:59.002Z,4.20
2018-06-29T06:42:28.547Z,5.30
2018-06-29T06:44:57.253Z,4.00
2018-06-29T06:47:25.987Z,11.30
2018-06-29T06:49:54.690Z,3.83
2018-06-29T06:52:23.377Z,4.60
2018-06-29T06:54:52.547Z,9.33
2018-06-29T06:57:21.670Z,9.50
2018-06-29T06:59:50.805Z,7.67
2018-06-29T07:02:19.557Z,4.77
2018-06-29T07:04:48.240Z,4.50
2018-06-29T07:07:16.906Z,6.23
2018-06-29T07:09:45.591Z,4.50
2018-06-29T07:12:14.298Z,5.73
2018-06-29T07:14:42.969Z,7.10
2018-06-29T07:17:11.737Z,5.77
2018-06-29T07:19:40.512Z,5.67
2018-06-29T07:22:09.319Z,6.40
2018-06-29T07:24:38.035Z,5.40
2018-06-29T07:27:06.792Z,5.10
2018-06-29T07:29:35.491Z,4.17
2018-06-29T07:32:04.198Z,4.43
2018-06-29T07:34:32.884Z,6.20
2018-06-29T07:37:01.545Z,6.50
2018-06-29T07:39:30.980Z,6.50
2018-06-29T07:41:59.664Z,8.23
2018-06-29T07:44:28.396Z,4.67
2018-06-29T07:46:57.140Z,5.00
2018-06-29T07:49:25.888Z,5.80
2018-06-29T07:51:54.922Z,5.87
2018-06-29T07:54:23.601Z,8.00
2018-06-29T07:56:52.492Z,9.93
2018-06-29T07:59:21.162Z,8.03
2018-06-29T08:01:49.928Z,6.43
2018-06-29T08:04:18.961Z,6.77
2018-06-29T08:06:47.696Z,4.13
2018-06-29T08:09:16.399Z,5.20
2018-06-29T08:11:45.328Z,5.13
2018-06-29T08:14:14.460Z,4.83
2018-06-29T08:16:43.475Z,6.90
2018-06-29T08:19:12.228Z,6.80
2018-06-29T08:21:40.981Z,7.67
2018-06-29T08:24:10.655Z,5.77
2018-06-29T08:26:39.363Z,5.10
2018-06-29T08:29:08.503Z,4.93
2018-06-29T08:31:37.696Z,5.23
2018-06-29T08:34:06.387Z,5.43
2018-06-29T08:36:35.483Z,7.33
2018-06-29T08:39:06.422Z,5.70
2018-06-29T08:41:35.557Z,7.10
2018-06-29T08:44:04.611Z,6.00
2018-06-29T08:46:33.280Z,5.33
2018-06-29T08:49:01.946Z,6.10
2018-06-29T08:51:30.678Z,7.80
2018-06-29T08:53:59.664Z,4.90
2018-06-29T08:56:28.436Z,5.60
2018-06-29T08:58:57.168Z,6.23
2018-06-29T09:01:25.909Z,9.03
2018-06-29T09:03:54.578Z,5.23
2018-06-29T09:06:23.259Z,8.77
2018-06-29T09:08:51.970Z,6.57
2018-06-29T09:11:20.712Z,6.37
2018-06-29T09:13:49.699Z,8.57
2018-06-29T09:16:19.258Z,6.73
2018-06-29T09:18:48.044Z,8.50
2018-06-29T09:21:16.756Z,5.80
2018-06-29T09:23:45.547Z,5.73
2018-06-29T09:26:14.940Z,6.00
2018-06-29T09:28:44.293Z,7.10
2018-06-29T09:31:13.035Z,13.23
2018-06-29T09:33:41.799Z,8.07
2018-06-29T09:36:10.793Z,9.77
2018-06-29T09:38:39.559Z,11.70
2018-06-29T09:41:09.424Z,6.43
2018-06-29T09:43:38.195Z,7.03
2018-06-29T09:46:07.045Z,9.23
2018-06-29T09:48:35.674Z,5.97
2018-06-29T09:51:04.439Z,7.10
2018-06-29T09:53:33.322Z,12.20
2018-06-29T09:56:02.942Z,8.47
2018-06-29T09:58:31.591Z,9.40
2018-06-29T10:01:00.597Z,9.77
2018-06-29T10:03:29.276Z,15.70
2018-06-29T10:05:58.229Z,13.23
2018-06-29T10:08:26.990Z,25.87
2018-06-29T10:10:55.772Z,30.30
2018-06-29T10:13:24.796Z,17.60
2018-06-29T10:15:54.485Z,9.77
2018-06-29T10:18:23.309Z,13.93
2018-06-29T10:20:52.093Z,12.27
2018-06-29T10:23:20.943Z,10.57
2018-06-29T10:25:50.391Z,8.00
2018-06-29T10:28:19.770Z,9.97
2018-06-29T10:30:49.256Z,8.20
2018-06-29T10:33:18.034Z,6.60
2018-06-29T10:35:46.796Z,7.53
2018-06-29T10:38:15.523Z,6.80
2018-06-29T10:40:44.341Z,13.73
2018-06-29T10:43:14.196Z,15.90
2018-06-29T10:45:42.981Z,9.13
2018-06-29T10:48:11.761Z,10.17
2018-06-29T10:50:40.536Z,10.57
2018-06-29T10:53:09.280Z,7.30
2018-06-29T10:55:38.969Z,10.40
2018-06-29T10:58:08.059Z,10.90
2018-06-29T11:00:37.191Z,7.63
2018-06-29T11:03:06.676Z,13.30
2018-06-29T11:05:35.465Z,7.70
2018-06-29T11:08:04.500Z,10.10
2018-06-29T11:10:33.309Z,11.00
2018-06-29T11:13:02.467Z,10.47
2018-06-29T11:15:31.353Z,12.10
2018-06-29T11:18:00.131Z,10.77
2018-06-29T11:20:29.946Z,11.00
2018-06-29T11:22:58.814Z,10.07
2018-06-29T11:25:27.531Z,8.97
2018-06-29T11:27:56.204Z,9.60
2018-06-29T11:30:25.049Z,14.40
2018-06-29T11:32:54.065Z,10.57
2018-06-29T11:35:22.741Z,7.67
2018-06-29T11:37:51.403Z,8.10
2018-06-29T11:40:20.133Z,10.17
2018-06-29T11:42:48.801Z,6.17
2018-06-29T11:45:17.511Z,9.20
2018-06-29T11:47:46.545Z,9.10
2018-06-29T11:50:15.227Z,8.40
2018-06-29T11:52:44.707Z,8.03
2018-06-29T11:55:13.436Z,5.80
2018-06-29T11:57:42.079Z,7.43
2018-06-29T12:00:11.278Z,6.00
2018-06-29T12:02:39.953Z,9.70
2018-06-29T12:05:08.671Z,10.20
2018-06-29T12:07:37.793Z,7.53
2018-06-29T12:10:06.589Z,7.80
2018-06-29T12:12:35.382Z,5.80
2018-06-29T12:15:04.052Z,6.27
2018-06-29T12:17:32.896Z,7.37
2018-06-29T12:20:01.653Z,6.00
2018-06-29T12:22:30.450Z,6.60
2018-06-29T12:24:59.196Z,8.53
2018-06-29T12:27:27.845Z,8.00
2018-06-29T12:29:56.574Z,6.30
2018-06-29T12:32:26.045Z,5.57
2018-06-29T12:34:54.778Z,6.33
2018-06-29T12:37:23.482Z,6.27
2018-06-29T12:39:52.148Z,8.80
2018-06-29T12:42:20.853Z,10.37
2018-06-29T12:44:49.605Z,7.67
2018-06-29T12:47:18.359Z,5.57
2018-06-29T12:49:47.131Z,6.53
2018-06-29T12:52:15.814Z,6.03
2018-06-29T12:54:44.519Z,7.60
2018-06-29T12:57:13.241Z,9.33
2018-06-29T12:59:43.046Z,5.60
2018-06-29T13:02:11.705Z,6.47
2018-06-29T13:04:40.379Z,6.10
2018-06-29T13:07:09.083Z,6.57
2018-06-29T13:09:37.806Z,5.30
2018-06-29T13:12:06.512Z,6.10
2018-06-29T13:14:35.153Z,6.83
2018-06-29T13:17:03.889Z,5.33
2018-06-29T13:19:32.607Z,4.57
2018-06-29T13:22:01.252Z,6.57
2018-06-29T13:24:30.495Z,5.13
2018-06-29T13:26:59.184Z,7.27
2018-06-29T13:29:27.893Z,5.40
2018-06-29T13:31:56.591Z,8.60
2018-06-29T13:34:25.752Z,6.20
2018-06-29T13:36:54.850Z,5.17
2018-06-29T13:39:23.558Z,6.67
2018-06-29T13:41:52.489Z,5.27
2018-06-29T13:44:21.227Z,5.50
2018-06-29T13:46:49.920Z,5.30
2018-06-29T13:49:18.675Z,6.20
2018-06-29T13:51:47.321Z,5.67
2018-06-29T13:54:16.550Z,9.03
2018-06-29T13:56:45.236Z,6.10
2018-06-29T13:59:14.028Z,5.07
2018-06-29T14:01:43.156Z,8.30
2018-06-29T14:04:11.843Z,7.20
2018-06-29T14:06:40.708Z,6.73
2018-06-29T14:09:09.464Z,9.47
2018-06-29T14:11:38.182Z,6.60
2018-06-29T14:14:06.860Z,7.60
2018-06-29T14:16:35.509Z,6.60
2018-06-29T14:19:04.628Z,4.30
2018-06-29T14:21:33.682Z,8.13
2018-06-29T14:24:02.386Z,5.40
2018-06-29T14:26:31.062Z,4.47
2018-06-29T14:28:59.813Z,5.77
2018-06-29T14:31:28.755Z,7.93
2018-06-29T14:33:57.437Z,6.27
2018-06-29T14:36:26.115Z,7.43
2018-06-29T14:38:54.763Z,5.83
2018-06-29T14:41:23.415Z,7.30
2018-06-29T14:43:52.188Z,5.70
2018-06-29T14:46:21.735Z,7.43
2018-06-29T14:48:50.367Z,6.93
2018-06-29T14:51:19.052Z,6.70
2018-06-29T14:53:47.735Z,6.97
2018-06-29T14:56:16.495Z,6.73
2018-06-29T14:58:45.947Z,8.43
2018-06-29T15:01:15.668Z,5.80
2018-06-29T15:03:44.344Z,7.53
2018-06-29T15:06:13.808Z,4.10
2018-06-29T15:08:44.386Z,4.03
2018-06-29T15:11:13.055Z,7.37
2018-06-29T15:13:42.327Z,7.80
2018-06-29T15:16:10.986Z,8.00
2018-06-29T15:18:39.680Z,3.70
2018-06-29T15:21:08.629Z,6.03
2018-06-29T15:23:38.325Z,5.83
2018-06-29T15:26:07.574Z,4.00
2018-06-29T15:28:36.352Z,5.37
2018-06-29T15:31:05.246Z,6.50
2018-06-29T15:33:33.930Z,6.47
2018-06-29T15:36:02.639Z,4.53
2018-06-29T15:38:31.533Z,5.70
2018-06-29T15:41:00.202Z,5.30
2018-06-29T15:43:28.878Z,6.63
2018-06-29T15:45:57.515Z,7.93
2018-06-29T15:48:27.248Z,6.20
2018-06-29T15:50:56.004Z,5.60
2018-06-29T15:53:25.102Z,5.20
2018-06-29T15:55:54.241Z,5.83
2018-06-29T15:58:23.290Z,4.73
2018-06-29T16:00:52.427Z,3.83
2018-06-29T16:03:21.380Z,4.70
2018-06-29T16:05:50.019Z,5.57
2018-06-29T16:08:18.736Z,3.20
2018-06-29T16:10:47.407Z,6.03
2018-06-29T16:13:16.110Z,5.93
2018-06-29T16:15:44.865Z,5.80
2018-06-29T16:18:13.496Z,3.63
2018-06-29T16:20:42.164Z,3.70
2018-06-29T16:23:10.874Z,6.20
2018-06-29T16:25:39.606Z,6.50
2018-06-29T16:28:08.320Z,3.90
2018-06-29T16:30:36.979Z,5.80
2018-06-29T16:33:05.670Z,3.40
2018-06-29T16:35:34.414Z,6.80
2018-06-29T16:38:03.099Z,3.73
2018-06-29T16:40:31.849Z,7.97
2018-06-29T16:43:00.522Z,3.27
2018-06-29T16:45:29.227Z,6.13
2018-06-29T16:47:57.934Z,4.93
2018-06-29T16:50:26.613Z,4.50
2018-06-29T16:52:55.621Z,4.30
2018-06-29T16:55:24.632Z,3.50
2018-06-29T16:57:53.937Z,3.10
2018-06-29T17:00:22.741Z,4.30
2018-06-29T17:02:51.428Z,5.23
2018-06-29T17:05:20.458Z,3.10
2018-06-29T17:07:49.120Z,3.17
2018-06-29T17:10:17.817Z,4.73
2018-06-29T17:12:46.596Z,7.37
2018-06-29T17:15:15.283Z,6.10
2018-06-29T17:17:44.606Z,4.60
2018-06-29T17:20:13.303Z,2.67
2018-06-29T17:22:41.988Z,2.77
2018-06-29T17:25:10.756Z,2.90
2018-06-29T17:27:39.407Z,3.20
2018-06-29T17:30:08.202Z,2.80
2018-06-29T17:32:36.954Z,5.07
2018-06-29T17:35:06.147Z,3.87
2018-06-29T17:37:34.880Z,4.07
2018-06-29T17:40:03.970Z,3.00
2018-06-29T17:42:32.866Z,2.90
2018-06-29T17:45:01.515Z,2.73
2018-06-29T17:47:30.199Z,4.17
2018-06-29T17:49:58.894Z,3.53
2018-06-29T17:52:27.573Z,2.23
2018-06-29T17:54:56.310Z,3.00
2018-06-29T17:57:25.025Z,2.37
2018-06-29T17:59:53.842Z,3.33
2018-06-29T18:02:22.496Z,2.60
2018-06-29T18:04:51.177Z,2.73
2018-06-29T18:07:20.128Z,3.63
2018-06-29T18:09:48.824Z,4.73
2018-06-29T18:12:17.540Z,5.43
2018-06-29T18:14:46.230Z,12.47
2018-06-29T18:17:15.489Z,3.80
2018-06-29T18:19:44.380Z,2.60
2018-06-29T18:22:13.066Z,3.20
2018-06-29T18:24:41.844Z,2.47
2018-06-29T18:27:10.643Z,18.07
2018-06-29T18:29:39.723Z,12.00
2018-06-29T18:32:08.364Z,3.70
2018-06-29T18:34:37.115Z,3.30
2018-06-29T18:37:05.894Z,3.80
2018-06-29T18:39:34.895Z,2.23
2018-06-29T18:42:03.629Z,3.70
2018-06-29T18:44:32.371Z,3.30
2018-06-29T18:47:01.069Z,6.90
2018-06-29T18:49:29.728Z,2.80
2018-06-29T18:51:58.415Z,3.93
2018-06-29T18:54:27.200Z,2.13
2018-06-29T18:56:55.969Z,5.20
2018-06-29T18:59:24.644Z,3.77
2018-06-29T19:01:53.446Z,3.47
2018-06-29T19:04:22.132Z,4.53
2018-06-29T19:06:50.885Z,4.30
2018-06-29T19:09:19.610Z,5.20
2018-06-29T19:11:48.528Z,3.00
2018-06-29T19:14:17.252Z,2.67
2018-06-29T19:16:45.899Z,7.20
2018-06-29T19:19:14.592Z,2.90
2018-06-29T19:21:43.460Z,3.43
2018-06-29T19:24:12.288Z,5.90
2018-06-29T19:26:41.608Z,5.43
2018-06-29T19:29:10.410Z,2.87
2018-06-29T19:31:39.138Z,3.50
2018-06-29T19:34:09.641Z,3.53
2018-06-29T19:36:38.375Z,2.23
2018-06-29T19:39:08.589Z,2.90
2018-06-29T19:41:38.123Z,3.57
2018-06-29T19:44:07.730Z,2.53
2018-06-29T19:46:37.566Z,6.93
2018-06-29T19:49:06.352Z,5.70
2018-06-29T19:51:35.138Z,2.83
2018-06-29T19:54:03.974Z,3.23
2018-06-29T19:56:32.720Z,1.80
2018-06-29T19:59:02.759Z,2.00
2018-06-29T20:01:31.467Z,3.73
2018-06-29T20:04:00.199Z,3.30
2018-06-29T20:06:28.926Z,4.80
2018-06-29T20:08:58.496Z,3.43
2018-06-29T20:11:27.450Z,3.23
2018-06-29T20:13:56.016Z,2.37
2018-06-29T20:16:26.791Z,3.00
2018-06-29T20:18:55.465Z,2.17
2018-06-29T20:21:24.271Z,2.87
2018-06-29T20:23:53.039Z,2.00
2018-06-29T20:26:21.917Z,3.00
2018-06-29T20:28:50.774Z,3.30
2018-06-29T20:31:19.569Z,3.63
2018-06-29T20:33:48.287Z,4.83
2018-06-29T20:36:17.012Z,4.20
2018-06-29T20:38:45.982Z,3.50
2018-06-29T20:41:14.751Z,3.70
2018-06-29T20:43:43.479Z,6.40
2018-06-29T20:46:12.161Z,3.73
2018-06-29T20:48:40.797Z,3.70
2018-06-29T20:51:09.560Z,4.17
2018-06-29T20:53:38.295Z,3.87
2018-06-29T20:56:07.028Z,3.60
2018-06-29T20:58:35.686Z,3.20
2018-06-29T21:01:04.479Z,3.90
2018-06-29T21:03:33.165Z,5.33
2018-06-29T21:06:02.567Z,3.20
2018-06-29T21:08:31.228Z,14.87
2018-06-29T21:11:00.551Z,25.40
2018-06-29T21:13:29.272Z,14.70
2018-06-29T21:15:58.131Z,5.30
2018-06-29T21:18:26.794Z,51.03
2018-06-29T21:20:55.500Z,73.87
2018-06-29T21:23:24.204Z,57.17
2018-06-29T21:25:53.608Z,5.30
2018-06-29T21:28:22.266Z,3.03
2018-06-29T21:30:50.979Z,2.60
2018-06-29T21:33:19.648Z,2.80
2018-06-29T21:35:48.315Z,2.90
2018-06-29T21:38:17.023Z,2.10
2018-06-29T21:40:45.677Z,2.37
2018-06-29T21:43:15.415Z,2.30
2018-06-29T21:45:44.122Z,2.83
2018-06-29T21:48:12.809Z,2.03
2018-06-29T21:50:42.360Z,2.50
2018-06-29T21:53:11.252Z,1.80
2018-06-29T21:55:39.943Z,3.57
2018-06-29T21:58:08.684Z,3.00
2018-06-29T22:00:40.411Z,4.03
2018-06-29T22:03:10.263Z,3.53
2018-06-29T22:05:39.969Z,3.10
2018-06-29T22:08:09.467Z,2.47
2018-06-29T22:10:38.824Z,2.70
2018-06-29T22:13:07.731Z,2.20
2018-06-29T22:15:36.394Z,3.73
2018-06-29T22:18:05.269Z,2.87
2018-06-29T22:20:34.013Z,5.50
2018-06-29T22:23:02.668Z,3.70
2018-06-29T22:25:31.339Z,3.40
2018-06-29T22:28:00.119Z,7.20
2018-06-29T22:30:28.791Z,3.77
2018-06-29T22:32:57.515Z,4.40
2018-06-29T22:35:26.223Z,4.17
2018-06-29T22:37:54.986Z,4.20
2018-06-29T22:40:23.846Z,11.20
2018-06-29T22:42:52.467Z,7.77
2018-06-29T22:45:21.155Z,4.57
2018-06-29T22:47:49.823Z,2.67
2018-06-29T22:50:18.902Z,4.00
2018-06-29T22:52:47.591Z,6.40
2018-06-29T22:55:16.268Z,3.30
2018-06-29T22:57:44.957Z,4.13
2018-06-29T23:00:13.581Z,4.53
2018-06-29T23:02:42.260Z,3.10
2018-06-29T23:05:10.943Z,2.40
2018-06-29T23:07:39.653Z,2.80
2018-06-29T23:10:08.301Z,2.87
2018-06-29T23:12:37.007Z,2.90
2018-06-29T23:15:05.792Z,1.77
2018-06-29T23:17:34.485Z,4.60
2018-06-29T23:20:03.253Z,7.57
2018-06-29T23:22:31.919Z,3.13
2018-06-29T23:25:00.565Z,3.27
2018-06-29T23:27:29.292Z,2.87
2018-06-29T23:29:57.948Z,2.97
2018-06-29T23:32:26.593Z,3.47
2018-06-29T23:34:55.280Z,5.57
2018-06-29T23:37:23.932Z,3.10
2018-06-29T23:39:53.162Z,3.17
2018-06-29T23:42:21.830Z,3.53
2018-06-29T23:44:50.600Z,3.70
2018-06-29T23:47:19.323Z,4.27
2018-06-29T23:49:48.014Z,2.63
2018-06-29T23:52:16.680Z,3.80
2018-06-29T23:54:45.373Z,3.33
2018-06-29T23:57:14.044Z,5.27
2018-06-29T23:59:42.730Z,6.03
